Bookmark and Share
Track history (hours):
 

Drifting buoy 48534

Last reported at 2011-Nov-26 04:00 UTC. Time now 2014-Apr-18 05:30 UTC.
Position N 83°25' W 044°23'.
Warning: this ship's position is years out of date!

Barometer 992.4 mb
Air temperature -15.8 ° C

NotesDate/timePositionNaut miles runAvg speedWind from/ knotsBaromVisibWave heightAir tempDewpointWater temp
2011-Nov-26 04:00N 83°25' W 044°23'0 1.9 992.4 -15.8
2011-Nov-26 03:50N 83°25' W 044°25'0 0.0 -15.8
2011-Nov-26 03:40N 83°25' W 044°25'0 0.5 992.4 -15.8
2011-Nov-26 03:00N 83°24' W 044°22'0 1.5 992.3 -15.8
2011-Nov-26 02:50N 83°25' W 044°24'0 0.1 992.4 -15.8
2011-Nov-26 02:10N 83°25' W 044°24'0 1.3 992.3 -15.4
2011-Nov-26 02:00N 83°24' W 044°23'1 3.8 992.1 -15.3
2011-Nov-26 01:50N 83°24' W 044°19'1 1.7 992.1 -15.2
2011-Nov-26 01:20N 83°25' W 044°24'0 0.7 992.4 -14.8
2011-Nov-26 01:10N 83°25' W 044°24'0 0.0 992.4 -14.7
2011-Nov-26 01:00N 83°25' W 044°24'0 0.0 992.4 -14.7
2011-Nov-26 00:50N 83°25' W 044°24'0 0.5 992.4 -14.4
2011-Nov-26 00:30N 83°25' W 044°25'0 1.0 991.8 -14.4
2011-Nov-26 00:20N 83°25' W 044°24'0 0.7 991.8 -14.4
2011-Nov-26 00:10N 83°24' W 044°24'1 1.4 992.0 -14.4
2011-Nov-25 23:40N 83°25' W 044°30'0 0.4 992.0 -14.7
2011-Nov-25 23:30N 83°25' W 044°29'0 0.4 992.1 -14.9
2011-Nov-25 23:10N 83°25' W 044°30'0 0.0 992.1 -15.2
2011-Nov-25 22:50N 83°25' W 044°30'0 0.8 992.1 -15.4
2011-Nov-25 22:40N 83°25' W 044°31'0 1.8 992.3 -15.4
2011-Nov-25 22:30N 83°24' W 044°29'1 1.1 992.3 -15.4
2011-Nov-25 21:50N 83°25' W 044°35'0 0.2 992.7
2011-Nov-25 21:30N 83°25' W 044°35'0 0.0 992.7 -15.7
2011-Nov-25 21:20N 83°25' W 044°35'0 1.9 992.7 -15.7
2011-Nov-25 21:10N 83°25' W 044°38'0 1.9 -15.7
2011-Nov-25 21:00N 83°25' W 044°40'0 0.0 992.7 -15.9
2011-Nov-25 20:50N 83°25' W 044°40'0 0.5 992.8 -15.9
2011-Nov-25 20:40N 83°25' W 044°39'0 0.0 992.9 -15.9
2011-Nov-25 20:10N 83°25' W 044°39'0 0.0 993.2 -15.9
2011-Nov-25 20:00N 83°25' W 044°39'1 3.2
2011-Nov-25 19:50N 83°25' W 044°43'0 3.0 993.2 -15.7
2011-Nov-25 19:40N 83°25' W 044°40'0 0.9 993.4 -15.6
2011-Nov-25 19:20N 83°25' W 044°43'0 0.0 993.4 -15.5
2011-Nov-25 19:10N 83°25' W 044°43'0 0.0 993.4 -15.5
2011-Nov-25 19:00N 83°25' W 044°43'0 0.3 993.4 -15.5
2011-Nov-25 18:30N 83°25' W 044°44'1 3.3 993.6 -15.4
2011-Nov-25 18:20N 83°24' W 044°42'1 1.7 993.6 -15.4
2011-Nov-25 18:00N 83°25' W 044°44'0 0.6 993.6 -15.4
2011-Nov-25 17:40N 83°25' W 044°42'0 1.4 993.5 -15.4
2011-Nov-25 17:30N 83°25' W 044°44'0 0.5 993.6 -15.4
2011-Nov-25 17:20N 83°25' W 044°45'0 0.0 993.5 -15.3
2011-Nov-25 16:50N 83°25' W 044°45'0 0.5 993.5 -15.3
2011-Nov-25 16:40N 83°25' W 044°44'0 0.2 993.5 -15.2
2011-Nov-25 16:20N 83°25' W 044°44'0 0.4 993.6 -15.2
2011-Nov-25 16:00N 83°25' W 044°45'0 0.0 993.8 -15.0
2011-Nov-25 15:50N 83°25' W 044°45'0 0.4 993.6 -15.0
2011-Nov-25 15:40N 83°25' W 044°45'0 0.0 993.6 -15.0
2011-Nov-25 15:10N 83°25' W 044°45'0 0.7 993.8 -14.9
2011-Nov-25 15:00N 83°25' W 044°44'0 0.0 993.8 -14.9
2011-Nov-25 14:50N 83°25' W 044°44'0 0.8 993.8 -14.9
2011-Nov-25 14:40N 83°25' W 044°44'0 0.4 993.9 -14.9
2011-Nov-25 14:20N 83°25' W 044°44'0 1.0 994.0 -14.9
2011-Nov-25 14:10N 83°25' W 044°45'0 0.0 994.2 -14.8
2011-Nov-25 14:00N 83°25' W 044°45'0 0.3 994.2 -14.8
2011-Nov-25 13:30N 83°25' W 044°44'0 0.4 994.3 -14.8
2011-Nov-25 13:20N 83°25' W 044°44'0 0.4 994.4 -14.7
2011-Nov-25 13:10N 83°25' W 044°44'0 0.0 994.3 -14.8
2011-Nov-25 13:00N 83°25' W 044°44'0 0.5 994.3 -59.9
2011-Nov-25 12:40N 83°25' W 044°45'0 0.8 994.4 -14.8
2011-Nov-25 12:30N 83°25' W 044°44'0 0.0 994.3 -14.7
2011-Nov-25 12:20N 83°25' W 044°44'0 0.0 994.4 -14.6
2011-Nov-25 11:40N 83°25' W 044°44'0 0.9 994.6 -14.6
2011-Nov-25 11:30N 83°25' W 044°45'0 0.0 994.6 -14.5
2011-Nov-25 11:20N 83°25' W 044°45'0 0.4 994.6 -14.6
2011-Nov-25 11:00N 83°25' W 044°45'0 0.7 994.4 -14.5
2011-Nov-25 10:50N 83°25' W 044°45'0 0.0 994.6 -14.5
2011-Nov-25 10:40N 83°25' W 044°45'0 0.2 994.6 -14.5
2011-Nov-25 10:00N 83°25' W 044°44'0 0.4 994.3 -14.5
2011-Nov-25 09:50N 83°25' W 044°44'0 0.0 994.3 -14.5
2011-Nov-25 09:40N 83°25' W 044°44'0 0.8 994.3 -14.5
2011-Nov-25 09:20N 83°25' W 044°47'0 1.7 994.3 -14.5
2011-Nov-25 09:10N 83°25' W 044°44'0 1.1 994.3 -14.5
2011-Nov-25 09:00N 83°25' W 044°44'0 0.0 994.3 -14.4
2011-Nov-25 08:50N 83°25' W 044°44'0 0.4 -14.4
2011-Nov-25 08:20N 83°25' W 044°45'0 0.4 994.0 -14.4
2011-Nov-25 08:10N 83°25' W 044°45'0 0.0 994.0 -14.4
2011-Nov-25 08:00N 83°25' W 044°45'0 0.1 994.0 -14.4
2011-Nov-25 07:30N 83°25' W 044°45'0 0.8 994.2 -14.5
2011-Nov-25 07:20N 83°25' W 044°45'0 0.4 994.2
2011-Nov-25 07:10N 83°25' W 044°45'0 0.0 994.3 -14.6
2011-Nov-25 06:40N 83°25' W 044°45'0 1.1 994.2 -14.7
2011-Nov-25 06:30N 83°25' W 044°44'0 0.3 994.2 -14.7
2011-Nov-25 05:50N 83°25' W 044°45'0 0.0 994.4 -14.9
2011-Nov-25 05:40N 83°25' W 044°45'0 0.7 994.4 -14.9
2011-Nov-25 05:30N 83°24' W 044°46'0 0.2 994.4 -14.9
2011-Nov-25 05:00N 83°25' W 044°46'0 0.0 994.4 -14.9
2011-Nov-25 04:50N 83°25' W 044°46'0 0.2 994.4 -14.9
2011-Nov-25 04:10N 83°24' W 044°47'0 0.0 994.4 -15.0
2011-Nov-25 04:00N 83°24' W 044°47'0 2.7 994.4 -15.0
2011-Nov-25 03:50N 83°24' W 044°49'0 1.3 994.6 -15.0
2011-Nov-25 03:40N 83°24' W 044°48'0 0.0 994.6 -15.0
2011-Nov-25 03:10N 83°24' W 044°48'0 0.6 994.9 -15.1
2011-Nov-25 02:50N 83°24' W 044°49'0 0.0 994.9 -15.0
2011-Nov-25 02:30N 83°24' W 044°49'0 2.2 994.9 -15.2
2011-Nov-25 02:20N 83°24' W 044°47'0 0.9 994.9 -15.2
2011-Nov-25 02:00N 83°24' W 044°49'0 0.1 994.9 -15.4
2011-Nov-25 01:30N 83°24' W 044°50'0 0.4 995.0 -15.4
2011-Nov-25 00:50N 83°24' W 044°48'1 4.1 995.1 -15.2
2011-Nov-25 00:40N 83°24' W 044°54'0 0.0 995.1 -15.2
2011-Nov-25 00:30N 83°24' W 044°54'0 1.6 995.1 -15.2
2011-Nov-25 00:20N 83°24' W 044°52'0 0.6 995.3 -15.2
2011-Nov-24 23:50N 83°24' W 044°50'1 5.9 995.3 -15.2
2011-Nov-24 23:40N 83°24' W 044°58'1 1.1 995.4 -15.3
2011-Nov-24 23:10N 83°24' W 044°54'1 3.3 995.3 -15.3
2011-Nov-24 23:00N 83°24' W 044°58'0 1.5 995.3 -15.3
2011-Nov-24 22:40N 83°24' W 044°56'0 0.6 995.3 -15.2
2011-Nov-24 22:30N 83°24' W 044°55'0 0.0 995.3 -15.2
2011-Nov-24 22:10N 83°24' W 044°55'0 0.0 995.5 -15.3
2011-Nov-24 22:00N 83°24' W 044°55'0 0.7 995.4 -15.2
2011-Nov-24 21:20N 83°24' W 044°58'0 0.0 995.5 -15.3
2011-Nov-24 21:10N 83°24' W 044°58'1 3.5 995.5 -15.3
2011-Nov-24 21:00N 83°23' W 045°00'0 0.2 995.4 -15.3
2011-Nov-24 20:20N 83°23' W 045°00'1 4.8 995.1 -15.3
2011-Nov-24 20:10N 83°24' W 044°56'0 0.0 995.1 -15.3
2011-Nov-24 19:40N 83°24' W 044°56'0 2.7 995.1 -15.3
2011-Nov-24 19:30N 83°23' W 044°59'0 0.5 995.1 -15.3
2011-Nov-24 19:20N 83°23' W 044°58'0 0.7 995.0 -15.2
2011-Nov-24 18:50N 83°23' W 045°01'0 2.3 995.0 -15.2
2011-Nov-24 18:40N 83°23' W 044°58'0 0.0 994.9 -15.2
2011-Nov-24 18:30N 83°23' W 044°58'0 2.6 994.9
2011-Nov-24 18:20N 83°23' W 044°56'0 0.2 994.9 -15.2
2011-Nov-24 17:50N 83°23' W 044°56'1 3.5 994.9 -15.4
2011-Nov-24 17:40N 83°24' W 044°58'1 4.1 994.9 -15.3
2011-Nov-24 17:30N 83°23' W 044°59'0 0.0 994.7 -15.3
2011-Nov-24 17:10N 83°23' W 044°59'0 0.0 994.7 -15.4
2011-Nov-24 17:00N 83°23' W 044°59'0 1.7 994.7 -15.7
2011-Nov-24 16:50N 83°23' W 044°57'0 2.7 994.7 -15.4
2011-Nov-24 16:40N 83°23' W 045°01'0 1.4 994.7 -15.4
2011-Nov-24 16:20N 83°23' W 044°57'0 2.6 994.7 -15.4
2011-Nov-24 16:10N 83°23' W 045°01'0 0.0 994.7 -15.5
2011-Nov-24 16:00N 83°23' W 045°01'0 0.4 994.7 -15.5
2011-Nov-24 15:50N 83°23' W 045°01'0 0.0 994.6 -15.5
2011-Nov-24 15:30N 83°23' W 045°01'0 0.4 994.7 -15.6
2011-Nov-24 15:10N 83°23' W 045°01'0 0.0 994.7 -15.7
2011-Nov-24 14:40N 83°23' W 045°01'0 0.5 994.6 -15.8
2011-Nov-24 14:30N 83°23' W 045°00'0 0.4 994.7 -15.8
2011-Nov-24 14:20N 83°23' W 045°00'0 0.0 994.6 -15.9
2011-Nov-24 14:10N 83°23' W 045°00'0 0.2 994.6 -15.9
2011-Nov-24 13:50N 83°23' W 045°01'0 0.9 994.6 -15.9
2011-Nov-24 13:40N 83°23' W 045°00'0 0.0 994.6 -15.9
2011-Nov-24 13:30N 83°23' W 045°00'0 0.7 994.6 -15.9
2011-Nov-24 13:20N 83°23' W 045°01'0 0.0 994.6 -15.9
2011-Nov-24 13:00N 83°23' W 045°01'0 0.0 994.6 -15.9
2011-Nov-24 12:50N 83°23' W 045°01'0 0.5 994.6 -16.0
2011-Nov-24 12:40N 83°23' W 045°01'0 0.0 994.6 -16.1
2011-Nov-24 12:30N 83°23' W 045°01'0 0.4 994.6 -16.2
2011-Nov-24 12:10N 83°23' W 045°01'0 0.0 994.7 -16.2
2011-Nov-24 12:00N 83°23' W 045°01'0 0.8 994.6 -16.1
2011-Nov-24 11:50N 83°23' W 045°01'0 0.4 994.6 -16.1
2011-Nov-24 11:20N 83°23' W 045°00'0 1.3 994.6 -15.9
2011-Nov-24 11:10N 83°23' W 045°01'0 0.0 994.7 -16.0
2011-Nov-24 11:00N 83°23' W 045°01'0 0.8 994.7 -16.1
2011-Nov-24 10:50N 83°23' W 045°01'0 0.1 994.6 -16.1
2011-Nov-24 10:10N 83°23' W 045°01'0 0.5 994.3 -16.0
2011-Nov-24 10:00N 83°23' W 045°00'0 0.6 994.3 -16.0
2011-Nov-24 09:40N 83°23' W 045°02'0 0.8 994.3 -16.0
2011-Nov-24 09:30N 83°23' W 045°01'0 0.0 994.4 -16.0
2011-Nov-24 09:20N 83°23' W 045°01'0 0.9 994.6 -16.0
2011-Nov-24 09:10N 83°23' W 045°02'0 0.0 994.4 -16.0
2011-Nov-24 09:00N 83°23' W 045°02'0 0.2 994.4 -16.0
2011-Nov-24 08:30N 83°23' W 045°02'0 1.3 994.4 -15.9
2011-Nov-24 08:20N 83°23' W 045°03'0 0.3 994.4 -15.9
2011-Nov-24 07:50N 83°23' W 045°04'0 0.0 994.3 -15.9
2011-Nov-24 07:20N 83°23' W 045°05'0 0.0 994.2 -15.9
2011-Nov-24 06:50N 83°23' W 045°05'1 1.0 994.0 -15.9
2011-Nov-24 06:10N 83°23' W 045°10'0 2.7 993.9 -15.8
2011-Nov-24 06:00N 83°23' W 045°07'0 0.1 994.0 -15.9
2011-Nov-24 05:50N 83°23' W 045°07'0 1.4 994.0 -15.9
2011-Nov-24 05:40N 83°23' W 045°09'0 0.0 993.8 -16.0
2011-Nov-24 05:10N 83°23' W 045°09'0 0.0 993.8 -16.1
2011-Nov-24 05:00N 83°23' W 045°09'0 0.8 993.8 -16.1
2011-Nov-24 04:30N 83°23' W 045°11'0 1.9 993.9 -15.9
2011-Nov-24 04:20N 83°23' W 045°11'0 0.4 993.9 -15.9
2011-Nov-24 04:10N 83°23' W 045°11'1 3.2
2011-Nov-24 04:00N 83°23' W 045°13'0 1.0 993.6 -15.9
2011-Nov-24 03:30N 83°23' W 045°13'0 1.1 993.6 -15.8
2011-Nov-24 03:20N 83°23' W 045°14'0 0.0 993.9 -15.8
2011-Nov-24 02:50N 83°23' W 045°14'0 0.6 993.8 -15.7
2011-Nov-24 02:40N 83°23' W 045°14'0 1.0 993.8 -15.6
2011-Nov-24 02:30N 83°23' W 045°15'0 0.0 993.8 -15.6
2011-Nov-24 02:20N 83°23' W 045°15'0 2.0 993.8 -15.6
2011-Nov-24 02:10N 83°23' W 045°13'0 1.2 993.8 -15.6
2011-Nov-24 02:00N 83°23' W 045°15'0 1.2 993.8 -15.7
2011-Nov-24 01:50N 83°23' W 045°15'0 0.5 993.6 -15.7
2011-Nov-24 01:40N 83°23' W 045°15'0 0.5 993.8 -15.8
2011-Nov-24 01:30N 83°23' W 045°14'0 0.0 993.8 -15.8
2011-Nov-24 01:00N 83°23' W 045°14'0 1.7 993.9 -15.9
2011-Nov-24 00:50N 83°23' W 045°16'0 0.7 993.8 -15.9
2011-Nov-24 00:40N 83°23' W 045°17'0 2.0 993.9 -15.9
2011-Nov-24 00:30N 83°23' W 045°19'1 3.6 993.8 -16.0
2011-Nov-24 00:20N 83°23' W 045°14'1 3.1 993.8 -16.0
2011-Nov-24 00:10N 83°23' W 045°10'1 2.3 993.8 -16.1
2011-Nov-23 23:50N 83°23' W 045°17'0 0.0 993.8 -16.2
2011-Nov-23 23:20N 83°23' W 045°17'0 0.0 993.8 -16.4
2011-Nov-23 23:10N 83°23' W 045°17'0 0.4 993.8 -16.4
2011-Nov-23 23:00N 83°23' W 045°16'0 0.8 993.9 -16.5
2011-Nov-23 22:50N 83°23' W 045°17'0 0.0 994.0 -16.6
2011-Nov-23 22:40N 83°23' W 045°17'0 0.0 993.9 -16.6
2011-Nov-23 22:30N 83°23' W 045°17'0 0.8 993.9 -16.6
2011-Nov-23 22:20N 83°23' W 045°18'0 0.9 -16.9
2011-Nov-23 22:10N 83°23' W 045°19'0 0.0 994.0 -17.0
2011-Nov-23 21:40N 83°23' W 045°19'0 0.0 993.9 -16.9
2011-Nov-23 21:30N 83°23' W 045°19'0 0.4 993.9 -16.9
2011-Nov-23 21:20N 83°23' W 045°19'0 0.0 993.9 -16.8
2011-Nov-23 21:10N 83°23' W 045°19'0 0.9 994.0 -16.8
2011-Nov-23 21:00N 83°23' W 045°18'0 0.0 994.0 -16.8
2011-Nov-23 20:50N 83°23' W 045°18'0 0.8 993.9 -16.8
2011-Nov-23 20:30N 83°23' W 045°19'0 0.0 993.9 -16.8
2011-Nov-23 20:00N 83°23' W 045°19'0 0.9 993.8 -16.8
2011-Nov-23 19:40N 83°23' W 045°19'0 0.4 993.8 -16.8
2011-Nov-23 19:30N 83°23' W 045°18'0 0.8 993.6 -16.8
2011-Nov-23 19:20N 83°23' W 045°20'0 0.0 993.6 -16.7
2011-Nov-23 19:10N 83°23' W 045°20'0 0.6 993.5 -16.7
2011-Nov-23 18:50N 83°23' W 045°19'0 0.1 993.4 -16.8
2011-Nov-23 18:40N 83°23' W 045°19'0 0.0 993.4 -16.8
2011-Nov-23 18:20N 83°23' W 045°19'0 0.7 993.4 -17.0
2011-Nov-23 18:00N 83°23' W 045°20'0 0.0 993.2 -17.1
2011-Nov-23 17:50N 83°23' W 045°20'0 0.8 993.2 -17.2
2011-Nov-23 17:40N 83°23' W 045°21'0 0.0 993.2 -17.2
2011-Nov-23 17:20N 83°23' W 045°21'0 1.1 993.2 -17.2
2011-Nov-23 17:10N 83°23' W 045°22'0 0.9 993.2 -17.1
2011-Nov-23 17:00N 83°23' W 045°20'0 0.0 993.1 -17.0
2011-Nov-23 16:40N 83°23' W 045°20'0 0.1 993.1 -17.0
2011-Nov-23 16:20N 83°23' W 045°21'0 0.0 993.1 -17.0
2011-Nov-23 16:10N 83°23' W 045°21'0 0.4 993.1 -16.9
2011-Nov-23 16:00N 83°23' W 045°21'0 0.4 993.1 -16.8
2011-Nov-23 15:50N 83°23' W 045°20'0 0.2 993.1 -16.8
2011-Nov-23 15:30N 83°23' W 045°21'0 0.4 993.1 -16.7
2011-Nov-23 15:20N 83°23' W 045°21'0 0.0 993.1 -16.7
2011-Nov-23 15:00N 83°23' W 045°21'0 0.7 993.1 -16.6
2011-Nov-23 14:40N 83°23' W 045°19'0 1.5 992.9 -16.8
2011-Nov-23 14:30N 83°23' W 045°21'0 0.0 992.9 -16.7
2011-Nov-23 14:20N 83°23' W 045°21'0 0.0 992.9 -16.7
2011-Nov-23 14:00N 83°23' W 045°21'0 0.4 993.1 -16.8
2011-Nov-23 13:50N 83°23' W 045°21'0 0.5 992.9 -16.8
2011-Nov-23 13:40N 83°23' W 045°21'0 0.6 992.9 -16.8
2011-Nov-23 13:30N 83°23' W 045°21'0 0.6 992.8 -16.8
2011-Nov-23 13:20N 83°23' W 045°21'0 0.0 992.8 -16.8
2011-Nov-23 13:00N 83°23' W 045°21'0 0.9 992.8 -16.9
2011-Nov-23 12:50N 83°23' W 045°21'0 0.4 992.8 -16.9
2011-Nov-23 12:40N 83°23' W 045°21'0 0.7 992.8 -16.9
2011-Nov-23 12:30N 83°23' W 045°22'0 1.0 992.7 -16.8
2011-Nov-23 12:10N 83°23' W 045°20'0 0.0 992.8 -16.6
2011-Nov-23 12:00N 83°23' W 045°20'0 0.9 992.8 -16.6
2011-Nov-23 11:40N 83°23' W 045°21'0 0.0 992.7 -16.6
2011-Nov-23 11:30N 83°23' W 045°21'0 0.5 992.7 -16.6
2011-Nov-23 11:20N 83°23' W 045°20'0 0.4 992.7 -16.7
2011-Nov-23 11:10N 83°23' W 045°20'0 0.0 992.5 -16.7
2011-Nov-23 11:00N 83°23' W 045°20'0 2.1 992.5 -16.7
2011-Nov-23 10:50N 83°23' W 045°23'1 4.4 992.5 -16.8
2011-Nov-23 10:40N 83°22' W 045°18'0 0.0 992.4 -16.8
2011-Nov-23 10:30N 83°22' W 045°18'1 4.2 992.4 -16.8
2011-Nov-23 10:20N 83°23' W 045°21'0 2.0 992.1 -16.8
2011-Nov-23 10:10N 83°23' W 045°19'0 0.0 992.1
2011-Nov-23 10:00N 83°23' W 045°19'0 0.0 992.1 -16.7
2011-Nov-23 09:50N 83°23' W 045°19'0 1.9 992.1 -16.7
2011-Nov-23 09:40N 83°23' W 045°21'0 0.0 992.1 -16.6
2011-Nov-23 09:30N 83°23' W 045°21'0 1.3 992.0 -16.6
2011-Nov-23 09:20N 83°23' W 045°23'0 0.5 992.0 -16.6
2011-Nov-23 09:10N 83°23' W 045°23'0 0.7 992.0 -16.7
2011-Nov-23 08:50N 83°23' W 045°21'0 0.0 992.0 -16.7
2011-Nov-23 08:40N 83°23' W 045°21'0 0.6 991.8 -17.0
2011-Nov-23 08:30N 83°23' W 045°21'0 0.0
2011-Nov-23 08:20N 83°23' W 045°21'0 0.0 991.7
2011-Nov-23 08:10N 83°23' W 045°21'0 0.4 991.7 -17.1
2011-Nov-23 07:50N 83°23' W 045°22'0 2.5 991.6 -17.3
2011-Nov-23 07:40N 83°23' W 045°25'0 0.8 991.4 -17.4
2011-Nov-23 07:20N 83°23' W 045°23'0 0.0 991.4 -17.4
2011-Nov-23 07:10N 83°23' W 045°23'0 0.2 991.3 -17.4
2011-Nov-23 07:00N 83°23' W 045°24'0 0.2 991.0 -17.4
2011-Nov-23 06:50N 83°23' W 045°23'0 0.1 990.9 -17.4
2011-Nov-23 06:30N 83°23' W 045°24'0 0.4 990.9 -17.4
2011-Nov-23 06:10N 83°23' W 045°25'0 0.6 990.9 -17.5
2011-Nov-23 06:00N 83°23' W 045°25'0 0.5 990.9 -17.5
2011-Nov-23 05:50N 83°23' W 045°25'0 0.0 990.8 -17.5
2011-Nov-23 05:20N 83°23' W 045°25'0 0.0 990.5 -17.6
2011-Nov-23 05:10N 83°23' W 045°25'0 0.3 990.5 -17.6
2011-Nov-23 04:50N 83°23' W 045°26'0 0.4 990.1 -17.6
2011-Nov-23 04:30N 83°23' W 045°26'0 0.0 990.2 -17.6
2011-Nov-23 04:20N 83°23' W 045°26'0 1.0 990.2
2011-Nov-23 04:10N 83°23' W 045°27'0 0.0 990.2 -17.5
2011-Nov-23 04:00N 83°23' W 045°27'0 0.2 990.1 -17.5
2011-Nov-23 03:40N 83°23' W 045°27'0 0.0 990.1 -17.4
2011-Nov-23 03:30N 83°23' W 045°27'0 0.7 990.1 -17.4
2011-Nov-23 03:10N 83°23' W 045°26'0 0.0 990.1 -17.3
2011-Nov-23 03:00N 83°23' W 045°26'0 2.2 990.1 -17.3
2011-Nov-23 02:50N 83°23' W 045°28'0 0.6 990.1 -17.2
2011-Nov-23 02:40N 83°23' W 045°27'0 2.0 989.9 -17.2
2011-Nov-23 02:30N 83°23' W 045°30'0 0.0 990.1 -17.2
2011-Nov-23 02:20N 83°23' W 045°30'0 0.0 989.9 -17.2
2011-Nov-23 02:00N 83°23' W 045°30'0 0.5 989.9 -17.1
2011-Nov-23 01:50N 83°23' W 045°29'0 0.1 989.9 -17.1
2011-Nov-23 01:00N 83°23' W 045°28'0 0.0 989.8 -17.2
2011-Nov-23 00:50N 83°23' W 045°28'0 1.4 989.7 -17.2
2011-Nov-23 00:40N 83°22' W 045°27'0 0.0 989.5 -17.3
2011-Nov-23 00:30N 83°22' W 045°27'0 2.9 989.5 -17.3
2011-Nov-23 00:20N 83°22' W 045°31'0 0.0 989.2 -17.3
2011-Nov-23 00:10N 83°22' W 045°31'0 1.8 989.4 -17.3
2011-Nov-23 00:00N 83°23' W 045°33'0 0.7 989.4 -17.3
2011-Nov-22 23:40N 83°23' W 045°31'0 0.8 989.4 -17.3
2011-Nov-22 23:20N 83°23' W 045°33'0 0.0 989.4 -17.3
2011-Nov-22 23:10N 83°23' W 045°33'0 0.6 989.4 -17.3
2011-Nov-22 23:00N 83°23' W 045°32'0 0.0 989.4 -17.3
2011-Nov-22 22:50N 83°23' W 045°32'0 0.0 989.4 -17.3
2011-Nov-22 22:40N 83°23' W 045°32'0 0.0 989.2 -17.2
2011-Nov-22 22:30N 83°23' W 045°32'0 1.5 989.2 -17.2
2011-Nov-22 22:20N 83°23' W 045°33'0 0.0 989.2 -17.2
2011-Nov-22 22:00N 83°23' W 045°33'0 0.0 989.2 -17.2
2011-Nov-22 21:40N 83°23' W 045°33'0 1.2 989.2 -17.1
2011-Nov-22 21:30N 83°23' W 045°31'0 0.7 989.2 -17.1
2011-Nov-22 21:20N 83°23' W 045°30'0 1.7 989.2 -17.1
2011-Nov-22 21:10N 83°23' W 045°33'0 1.4 989.2 -17.1
2011-Nov-22 21:00N 83°23' W 045°35'0 0.0 989.2 -17.1
2011-Nov-22 20:50N 83°23' W 045°35'0 0.8 989.2 -17.1
2011-Nov-22 20:40N 83°23' W 045°35'0 0.0 989.2 -17.1
2011-Nov-22 20:20N 83°23' W 045°35'0 0.0 989.4 -17.1
2011-Nov-22 20:00N 83°23' W 045°35'0 1.0 989.2 -17.1
2011-Nov-22 19:50N 83°23' W 045°37'0 0.8 989.2 -17.1
2011-Nov-22 19:40N 83°23' W 045°36'0 0.1 989.2 -17.1
2011-Nov-22 19:20N 83°23' W 045°37'0 0.0 989.2 -17.1
2011-Nov-22 19:10N 83°23' W 045°37'1 3.2 989.2 -17.1
2011-Nov-22 19:00N 83°23' W 045°39'0 0.0 989.1 -17.1
2011-Nov-22 18:50N 83°23' W 045°39'1 4.2 989.1 -17.1
2011-Nov-22 18:40N 83°23' W 045°36'0 0.1 989.1 -17.1
2011-Nov-22 18:10N 83°23' W 045°36'0 0.4 989.0 -17.2
2011-Nov-22 18:00N 83°23' W 045°36'0 0.7 989.0 -17.2
2011-Nov-22 17:40N 83°23' W 045°34'0 0.0 988.8 -17.3
2011-Nov-22 17:30N 83°23' W 045°34'0 2.6 988.8 -17.4
2011-Nov-22 17:20N 83°23' W 045°38'0 1.8 988.7 -17.4
2011-Nov-22 17:10N 83°23' W 045°40'0 1.2 988.7 -17.4
2011-Nov-22 17:00N 83°23' W 045°39'0 0.1 988.7 -17.4
2011-Nov-22 16:30N 83°23' W 045°40'0 0.0 988.8 -17.5
2011-Nov-22 16:20N 83°23' W 045°40'0 2.6 988.8 -17.6
2011-Nov-22 16:10N 83°23' W 045°40'0 2.2 988.8 -17.6
2011-Nov-22 16:00N 83°23' W 045°39'0 1.3 989.1 -17.6
2011-Nov-22 15:50N 83°22' W 045°41'0 0.0 989.1 -17.7
2011-Nov-22 15:40N 83°22' W 045°41'0 0.4 989.1 -17.7
2011-Nov-22 15:30N 83°23' W 045°41'0 0.0 989.1 -17.7
2011-Nov-22 15:20N 83°23' W 045°41'0 0.1 989.1 -17.7
2011-Nov-22 14:50N 83°23' W 045°41'0 1.1 989.2 -17.8
2011-Nov-22 14:40N 83°23' W 045°42'0 0.0 -17.8
2011-Nov-22 14:30N 83°23' W 045°42'0 0.4 989.1 -17.8
2011-Nov-22 14:20N 83°23' W 045°42'0 0.4 989.2 -17.8
2011-Nov-22 14:10N 83°23' W 045°42'0 0.0 989.2 -17.8
2011-Nov-22 14:00N 83°23' W 045°42'0 1.0 989.2 -17.8
2011-Nov-22 13:50N 83°23' W 045°43'0 2.5 989.4 -17.8
2011-Nov-22 13:40N 83°22' W 045°40'0 0.9 989.4 -17.8
2011-Nov-22 13:10N 83°23' W 045°43'0 0.8 989.5 -17.8
2011-Nov-22 13:00N 83°23' W 045°44'0 0.0 989.5 -17.8
2011-Nov-22 12:50N 83°23' W 045°44'0 0.8 989.5 -17.8
2011-Nov-22 12:40N 83°23' W 045°43'0 0.4 989.5 -17.8
2011-Nov-22 12:30N 83°23' W 045°43'0 0.4 989.5 -17.9
2011-Nov-22 12:20N 83°23' W 045°43'0 0.0 989.5 -17.9
2011-Nov-22 12:10N 83°23' W 045°43'0 1.0 989.5 -17.9
2011-Nov-22 12:00N 83°23' W 045°44'0 0.6 989.5 -17.9
2011-Nov-22 11:30N 83°23' W 045°45'0 0.7 989.7 -17.9
2011-Nov-22 11:20N 83°23' W 045°45'0 0.0 989.7 -17.8
2011-Nov-22 11:10N 83°23' W 045°45'0 2.0 989.8 -17.9
2011-Nov-22 11:00N 83°23' W 045°44'0 1.1 989.8 -17.9
2011-Nov-22 10:50N 83°23' W 045°45'0 0.6 989.9 -17.9
2011-Nov-22 10:30N 83°23' W 045°44'0 2.2 989.8 -17.9
2011-Nov-22 10:20N 83°23' W 045°44'0 0.0 989.7 -17.9
2011-Nov-22 10:10N 83°23' W 045°44'0 0.9 -17.9
2011-Nov-22 09:50N 83°23' W 045°45'0 0.0 989.4 -17.9
2011-Nov-22 09:40N 83°23' W 045°45'0 0.7 989.5 -18.0
2011-Nov-22 09:30N 83°23' W 045°44'0 0.4 989.5 -18.0
2011-Nov-22 09:20N 83°23' W 045°44'0 0.5 989.7 -18.1
2011-Nov-22 09:10N 83°23' W 045°45'0 0.0 989.7 -18.1
2011-Nov-22 08:50N 83°23' W 045°45'0 1.2 989.7 -18.3
2011-Nov-22 08:40N 83°23' W 045°46'0 0.0 989.8 -18.3
2011-Nov-22 08:30N 83°23' W 045°46'0 0.7 989.7 -18.3
2011-Nov-22 08:10N 83°23' W 045°47'0 0.0 989.5 -18.6
2011-Nov-22 08:00N 83°23' W 045°47'0 1.0 989.5 -18.7
2011-Nov-22 07:50N 83°23' W 045°48'0 0.0 989.5 -18.7
2011-Nov-22 07:40N 83°23' W 045°48'0 0.0 989.4 -18.8
2011-Nov-22 07:10N 83°23' W 045°48'0 1.1 989.4 -19.0
2011-Nov-22 07:00N 83°23' W 045°48'0 0.0 989.4 -19.1
2011-Nov-22 06:50N 83°23' W 045°48'0 0.7 989.5 -19.2
2011-Nov-22 06:30N 83°23' W 045°49'0 0.0 989.5 -19.3
2011-Nov-22 06:20N 83°23' W 045°49'0 1.1 989.4 -19.4
2011-Nov-22 06:10N 83°23' W 045°49'0 0.0 989.4 -19.5
2011-Nov-22 06:00N 83°23' W 045°49'0 0.1 989.4 -19.5
2011-Nov-22 05:30N 83°23' W 045°49'0 0.0 989.4 -19.7
2011-Nov-22 05:20N 83°23' W 045°49'0 0.4 989.4 -19.7
2011-Nov-22 05:10N 83°23' W 045°49'0 0.2 989.5 -19.9
2011-Nov-22 04:40N 83°23' W 045°50'0 0.6 989.7 -20.1
2011-Nov-22 04:30N 83°23' W 045°50'0 0.4 989.7 -20.2
2011-Nov-22 04:20N 83°23' W 045°50'0 0.0 989.7 -20.2
2011-Nov-22 04:10N 83°23' W 045°50'0 0.7 -20.2
2011-Nov-22 03:50N 83°23' W 045°51'0 0.0 989.5 -20.3
2011-Nov-22 03:40N 83°23' W 045°51'0 1.8 989.5 -20.3
2011-Nov-22 03:30N 83°23' W 045°51'0 0.0 989.4 -20.3
2011-Nov-22 03:20N 83°23' W 045°51'0 0.0 989.4 -20.3
2011-Nov-22 03:00N 83°23' W 045°51'0 1.5 989.5 -20.3
2011-Nov-22 02:50N 83°23' W 045°49'0 2.5 989.5 -20.3
2011-Nov-22 02:40N 83°23' W 045°53'0 0.1 989.5 -20.3
2011-Nov-22 02:00N 83°23' W 045°52'0 0.7 989.4 -20.6
2011-Nov-22 01:50N 83°23' W 045°51'0 0.0 989.4 -20.7
2011-Nov-22 01:40N 83°23' W 045°51'0 1.1 989.4 -20.7
2011-Nov-22 01:20N 83°23' W 045°55'0 0.0 989.5 -20.8
2011-Nov-22 01:10N 83°23' W 045°55'0 2.3 989.7 -20.9
2011-Nov-22 01:00N 83°23' W 045°53'0 0.0 989.8 -20.9
2011-Nov-22 00:50N 83°23' W 045°53'0 1.0 989.8 -20.9
2011-Nov-22 00:40N 83°23' W 045°54'0 1.1 989.8 -20.9
2011-Nov-22 00:20N 83°23' W 045°54'1 6.2 989.8 -21.0
2011-Nov-22 00:10N 83°24' W 045°50'1 6.9 989.8 -21.0
2011-Nov-22 00:00N 83°23' W 045°51'1 1.2 989.8 -21.0
2011-Nov-21 23:30N 83°23' W 045°56'0 1.1 989.9 -21.0
2011-Nov-21 23:20N 83°23' W 045°55'0 0.0 990.1 -21.0
2011-Nov-21 23:10N 83°23' W 045°55'0 1.8 990.1 -21.0
2011-Nov-21 23:00N 83°23' W 045°56'0 0.2 990.1 -21.1
2011-Nov-21 22:40N 83°23' W 045°56'0 0.7 989.9 -21.1
2011-Nov-21 22:30N 83°23' W 045°56'1 8.2 989.9 -21.1
2011-Nov-21 22:20N 83°22' W 046°04'1 2.7 989.8 -21.1
2011-Nov-21 21:50N 83°23' W 045°56'0 1.2 989.8 -21.1
2011-Nov-21 21:40N 83°23' W 045°55'0 0.0 989.8 -21.2
2011-Nov-21 21:30N 83°23' W 045°55'0 0.5 989.7 -21.3
2011-Nov-21 20:50N 83°23' W 045°58'0 0.0 989.7 -21.5
2011-Nov-21 20:40N 83°23' W 045°58'0 0.0 989.7 -21.6
2011-Nov-21 20:10N 83°23' W 045°58'0 1.5 989.7 -21.7
2011-Nov-21 20:00N 83°23' W 045°60'0 2.1 989.8 -21.8
2011-Nov-21 19:50N 83°23' W 045°57'0 0.0 989.7 -21.8
2011-Nov-21 19:40N 83°23' W 045°57'0 0.2 989.7 -21.8
2011-Nov-21 19:10N 83°23' W 045°56'0 0.0 989.8 -21.8
2011-Nov-21 19:00N 83°23' W 045°56'0 0.0 989.8
2011-Nov-21 18:30N 83°23' W 045°56'0 1.8 989.5 -21.9
2011-Nov-21 18:20N 83°23' W 045°56'0 0.0 989.4 -22.0
2011-Nov-21 18:10N 83°23' W 045°56'0 2.0 989.4 -22.1
2011-Nov-21 18:00N 83°23' W 045°54'1 1.0 989.2 -22.1
2011-Nov-21 17:30N 83°23' W 045°58'0 0.0 989.1 -22.2
2011-Nov-21 17:20N 83°23' W 045°58'0 0.2 989.2 -22.3
2011-Nov-21 16:40N 83°23' W 045°57'0 0.3 989.2 -22.2
2011-Nov-21 16:30N 83°23' W 045°58'0 0.0 989.2 -22.2
2011-Nov-21 16:20N 83°23' W 045°58'0 0.0 989.4 -22.2
2011-Nov-21 16:10N 83°23' W 045°58'0 0.0 989.4 -22.2
2011-Nov-21 15:50N 83°23' W 045°58'0 1.0 989.5 -22.4
2011-Nov-21 15:40N 83°23' W 045°57'0 0.7 989.5 -22.4
2011-Nov-21 15:00N 83°23' W 046°01'0 2.5 989.9 -22.8
2011-Nov-21 14:50N 83°23' W 045°59'0 0.0 989.9 -22.8
2011-Nov-21 14:40N 83°23' W 045°59'0 0.4 989.9 -22.9
2011-Nov-21 14:10N 83°23' W 046°01'1 3.1 990.1 -22.7
2011-Nov-21 14:00N 83°23' W 045°56'0 0.3 989.9 -22.7
2011-Nov-21 13:20N 83°23' W 045°57'0 1.3 989.9 -22.5
2011-Nov-21 13:10N 83°23' W 045°59'0 2.5 989.9 -22.5
2011-Nov-21 13:00N 83°23' W 045°56'0 0.6 989.9 -22.5
2011-Nov-21 12:30N 83°23' W 045°56'0 2.2 990.1 -22.3
2011-Nov-21 12:20N 83°23' W 045°59'0 0.6 990.2 -22.2
2011-Nov-21 11:40N 83°23' W 045°56'0 1.1 990.5 -22.2
2011-Nov-21 11:30N 83°23' W 045°56'0 1.9 990.6 -22.2
2011-Nov-21 11:20N 83°23' W 045°59'0 1.7 990.6 -22.2
2011-Nov-21 11:10N 83°23' W 045°56'0 0.1 990.6 -22.2
2011-Nov-21 10:40N 83°23' W 045°56'0 0.7 990.6 -22.1
2011-Nov-21 10:30N 83°23' W 045°56'0 0.3 990.6 -22.1
2011-Nov-21 10:00N 83°23' W 045°55'0 1.6 990.9 -22.1
2011-Nov-21 09:50N 83°23' W 045°57'0 0.0 990.9 -22.1
2011-Nov-21 09:40N 83°23' W 045°57'0 0.5 990.9 -22.1
2011-Nov-21 09:30N 83°23' W 045°56'0 0.3 991.0 -22.1
2011-Nov-21 09:00N 83°23' W 045°55'0 0.7 991.2 -21.8
2011-Nov-21 08:50N 83°23' W 045°55'0 0.0 -21.8
2011-Nov-21 08:20N 83°23' W 045°55'0 0.8 991.2 -21.6
2011-Nov-21 08:10N 83°23' W 045°54'0 0.5 991.2
2011-Nov-21 08:00N 83°23' W 045°54'0 0.1 991.3 -21.5
2011-Nov-21 07:20N 83°23' W 045°54'0 0.4 991.4 -21.4
2011-Nov-21 07:10N 83°23' W 045°55'0 0.2 991.4 -21.5
2011-Nov-21 06:40N 83°23' W 045°54'0 2.1 991.4 -21.6
2011-Nov-21 06:30N 83°24' W 045°51'0 0.0 991.4 -21.6
2011-Nov-21 06:20N 83°24' W 045°51'0 0.4 991.6 -21.7
2011-Nov-21 05:40N 83°24' W 045°53'0 0.0 991.7 -21.9
2011-Nov-21 05:30N 83°24' W 045°53'0 0.1 991.7 -21.9
2011-Nov-21 04:50N 83°24' W 045°53'0 0.6 992.1 -22.4
2011-Nov-21 04:40N 83°24' W 045°52'0 0.8 992.0 -22.5
2011-Nov-21 04:30N 83°24' W 045°51'0 0.1 992.0 -22.5
2011-Nov-21 04:00N 83°24' W 045°51'0 1.0 992.1 -22.5
2011-Nov-21 03:50N 83°24' W 045°53'0 0.3 992.3 -22.5
2011-Nov-21 03:10N 83°24' W 045°54'0 2.9 992.7 -22.8
2011-Nov-21 03:00N 83°24' W 045°50'0 1.3 992.7 -22.8
2011-Nov-21 02:50N 83°24' W 045°51'0 0.4 992.8 -23.0
2011-Nov-21 02:10N 83°24' W 045°53'0 1.7 993.1 -23.3
2011-Nov-21 02:00N 83°24' W 045°51'0 0.1 993.1 -23.3
2011-Nov-21 01:30N 83°24' W 045°51'0 0.4 993.2 -23.4
2011-Nov-21 01:20N 83°23' W 045°51'0 1.1 993.4 -23.3
2011-Nov-21 01:10N 83°23' W 045°52'0 0.2 993.4 -23.3
2011-Nov-21 00:30N 83°23' W 045°52'0 2.7 993.6 -23.1
2011-Nov-21 00:20N 83°23' W 045°48'0 0.5 -23.0
2011-Nov-20 23:40N 83°23' W 045°51'2 9.5 994.0 -22.8
2011-Nov-20 23:30N 83°24' W 046°04'2 9.1 994.2 -22.8
2011-Nov-20 23:20N 83°23' W 045°52'0 0.0 994.2 -22.8
2011-Nov-20 22:50N 83°23' W 045°52'0 0.4 994.3 -22.6
2011-Nov-20 22:40N 83°23' W 045°51'0 0.4 994.3 -22.6
2011-Nov-20 22:00N 83°23' W 045°49'0 0.0 994.6 -22.8
2011-Nov-20 21:50N 83°23' W 045°49'0 0.5 994.7 -22.9
2011-Nov-20 21:10N 83°24' W 045°47'0 2.0 994.7 -23.6
2011-Nov-20 21:00N 83°23' W 045°50'0 0.0 994.7 -23.8
2011-Nov-20 20:30N 83°23' W 045°50'0 1.3 994.7 -24.6
2011-Nov-20 20:20N 83°24' W 045°49'0 1.0 994.7 -24.8
2011-Nov-20 20:10N 83°24' W 045°47'0 1.4 994.7 -25.0
2011-Nov-20 20:00N 83°23' W 045°49'0 0.5 994.9 -25.1
2011-Nov-20 19:20N 83°24' W 045°49'0 0.0 995.1 -25.1
2011-Nov-20 18:50N 83°24' W 045°49'0 1.5 995.4 -24.9
2011-Nov-20 18:40N 83°24' W 045°48'0 1.4 995.4 -24.9
2011-Nov-20 18:30N 83°24' W 045°48'0 0.9 995.4 -24.8
2011-Nov-20 18:20N 83°24' W 045°47'0 0.5 995.4 -24.7
2011-Nov-20 17:40N 83°24' W 045°45'0 2.7 995.5 -24.3
2011-Nov-20 17:30N 83°24' W 045°47'0 0.0 995.5
2011-Nov-20 17:10N 83°24' W 045°47'0 0.0 995.8 -24.0
2011-Nov-20 17:00N 83°24' W 045°47'0 0.6 995.8 -24.0
2011-Nov-20 16:50N 83°24' W 045°46'0 0.5 995.8 -23.9
2011-Nov-20 16:40N 83°24' W 045°46'0 0.0 995.8 -23.8
2011-Nov-20 16:00N 83°24' W 045°46'0 0.3 996.0 -23.5
2011-Nov-20 15:50N 83°24' W 045°45'0 0.2 996.0 -23.5
2011-Nov-20 15:30N 83°24' W 045°46'0 0.0 996.1 -23.3
2011-Nov-20 15:20N 83°24' W 045°46'0 2.2 996.1 -23.3
2011-Nov-20 15:10N 83°24' W 045°47'0 0.9 996.2 -23.3
2011-Nov-20 15:00N 83°24' W 045°45'0 0.1 996.2 -23.4
2011-Nov-20 14:20N 83°24' W 045°46'0 0.4 996.5 -24.0
2011-Nov-20 14:10N 83°24' W 045°46'0 0.0 996.5 -24.2
2011-Nov-20 13:50N 83°24' W 045°46'0 0.0 996.8 -24.3
2011-Nov-20 13:40N 83°24' W 045°46'0 0.4 996.8 -24.3
2011-Nov-20 13:30N 83°24' W 045°47'0 0.0 996.8 -24.3
2011-Nov-20 13:20N 83°24' W 045°47'0 0.5 996.9 -24.2
2011-Nov-20 12:40N 83°24' W 045°44'0 0.7 997.0 -24.1
2011-Nov-20 12:30N 83°24' W 045°44'0 0.2 997.2
2011-Nov-20 12:10N 83°24' W 045°44'0 0.0 997.3 -24.0
2011-Nov-20 12:00N 83°24' W 045°44'0 1.5 997.2 -24.0
2011-Nov-20 11:50N 83°24' W 045°43'0 1.6 997.2 -24.0
2011-Nov-20 11:40N 83°24' W 045°45'0 0.6 997.3 -23.9
2011-Nov-20 11:00N 83°24' W 045°42'0 1.8 997.6 -23.5
2011-Nov-20 10:50N 83°24' W 045°39'0 0.0 997.7 -23.4
2011-Nov-20 10:20N 83°24' W 045°39'0 2.2 997.7 -23.1
2011-Nov-20 10:10N 83°24' W 045°41'0 0.7 997.7 -23.0
2011-Nov-20 10:00N 83°24' W 045°41'0 0.3 997.9 -22.9
2011-Nov-20 09:20N 83°24' W 045°39'0 1.7 998.1 -22.8
2011-Nov-20 09:10N 83°24' W 045°38'0 0.3 998.1 -22.8
2011-Nov-20 08:30N 83°24' W 045°37'0 0.0 998.3 -23.1
2011-Nov-20 08:20N 83°24' W 045°37'0 0.8 998.4 -23.2
2011-Nov-20 08:10N 83°24' W 045°37'0 0.8 998.4 -23.2
2011-Nov-20 07:40N 83°24' W 045°34'0 0.4 998.7 -23.1
2011-Nov-20 07:30N 83°24' W 045°34'0 1.7 998.7 -23.0
2011-Nov-20 07:20N 83°24' W 045°32'0 0.0
2011-Nov-20 06:50N 83°24' W 045°32'0 0.0 999.0 -22.7
2011-Nov-20 06:40N 83°24' W 045°32'1 3.4 999.0 -22.7
2011-Nov-20 06:30N 83°24' W 045°28'0 0.7 999.2 -22.6
2011-Nov-20 05:50N 83°24' W 045°29'0 0.0 999.4 -22.6
2011-Nov-20 05:40N 83°24' W 045°29'0 0.4 -22.6
2011-Nov-20 05:10N 83°24' W 045°28'0 0.0 999.5 -23.0
2011-Nov-20 05:00N 83°24' W 045°28'0 2.0 999.5 -23.1
2011-Nov-20 04:50N 83°24' W 045°25'0 0.0 999.5 -23.2
2011-Nov-20 04:40N 83°24' W 045°25'0 0.2 999.5 -23.2
2011-Nov-20 04:10N 83°24' W 045°24'0 0.0 999.8 -23.5
2011-Nov-20 04:00N 83°24' W 045°24'0 0.6 999.8 -23.5
2011-Nov-20 03:30N 83°24' W 045°22'0 0.0 1000.1 -24.0
2011-Nov-20 03:20N 83°24' W 045°22'0 2.5 1000.1 -24.2
2011-Nov-20 03:10N 83°24' W 045°21'1 3.7 1000.3 -24.3
2011-Nov-20 03:00N 83°24' W 045°20'0 0.0 1000.3 -24.5
2011-Nov-20 02:30N 83°24' W 045°20'0 1.8 1000.6 -24.8
2011-Nov-20 02:20N 83°24' W 045°22'1 1.5 1000.7 -25.0
2011-Nov-20 01:50N 83°24' W 045°16'0 0.0 1000.7 -25.3
2011-Nov-20 01:40N 83°24' W 045°16'0 0.5 1000.9 -25.4
2011-Nov-20 01:30N 83°24' W 045°16'1 3.3 1001.0 -25.4
2011-Nov-20 01:20N 83°24' W 045°11'0 0.0 1000.9 -25.4
2011-Nov-20 00:50N 83°24' W 045°11'1 5.3 1001.0 -25.5
2011-Nov-20 00:40N 83°24' W 045°19'1 5.1 1001.2 -25.5
2011-Nov-20 00:30N 83°24' W 045°12'0 0.4 1001.2 -25.5
2011-Nov-20 00:10N 83°24' W 045°12'0 0.0 1001.4 -25.4
2011-Nov-20 00:00N 83°24' W 045°12'0 2.5 -25.4
2011-Nov-19 23:50N 83°24' W 045°12'0 2.2 1001.6 -25.4
2011-Nov-19 23:40N 83°24' W 045°10'0 0.2 1001.6 -25.3
2011-Nov-19 23:10N 83°24' W 045°10'0 0.7 1001.7 -25.3
2011-Nov-19 23:00N 83°24' W 045°10'0 2.2 1001.7 -25.2
2011-Nov-19 22:50N 83°24' W 045°08'0 0.4 1001.7 -25.2
2011-Nov-19 22:30N 83°24' W 045°07'0 0.7 1002.0 -25.1
2011-Nov-19 22:20N 83°24' W 045°08'0 2.2 1002.0 -25.1
2011-Nov-19 22:10N 83°24' W 045°06'0 1.5 1002.2 -25.0
2011-Nov-19 22:00N 83°24' W 045°07'0 0.4 1002.5 -24.9
2011-Nov-19 21:50N 83°24' W 045°06'0 0.1 1002.5 -24.9
2011-Nov-19 21:20N 83°24' W 045°07'0 3.0 1002.5 -25.0
2011-Nov-19 21:10N 83°24' W 045°02'0 0.0 1002.5 -25.1
2011-Nov-19 20:50N 83°24' W 045°02'0 0.0 1002.7 -25.2
2011-Nov-19 20:40N 83°24' W 045°02'0 1.4 1002.7 -25.2
2011-Nov-19 20:30N 83°24' W 045°01'0 1.6 1002.7 -25.4
2011-Nov-19 20:20N 83°24' W 044°59'0 1.2 1002.9 -25.4
2011-Nov-19 20:10N 83°24' W 044°60'0 0.6 1003.1 -25.5
2011-Nov-19 19:50N 83°24' W 045°01'0 0.7 1003.3 -25.7
2011-Nov-19 19:30N 83°25' W 045°01'0 1.3 1003.3 -25.9
2011-Nov-19 19:10N 83°24' W 044°58'0 0.0 1003.5 -26.0
2011-Nov-19 19:00N 83°24' W 044°58'1 3.0 1003.5 -26.0
2011-Nov-19 18:50N 83°24' W 044°54'0 2.9 1003.6 -26.0
2011-Nov-19 18:40N 83°24' W 044°57'0 1.7 1003.8 -26.0
2011-Nov-19 18:30N 83°24' W 044°56'0 0.0 1003.8 -26.0
2011-Nov-19 18:00N 83°24' W 044°56'0 0.2
2011-Nov-19 17:50N 83°24' W 044°56'0 0.0 1004.4 -26.0
2011-Nov-19 17:40N 83°24' W 044°56'0 0.3 1004.4 -26.0
2011-Nov-19 17:10N 83°24' W 044°54'0 0.4 1004.8 -26.2
2011-Nov-19 17:00N 83°24' W 044°54'0 0.0 1005.0 -26.3
2011-Nov-19 16:50N 83°24' W 044°54'0 0.0 1005.1 -26.4
2011-Nov-19 16:20N 83°24' W 044°54'0 0.9 1005.4 -26.8
2011-Nov-19 16:10N 83°24' W 044°56'0 2.3 1005.5 -27.0
2011-Nov-19 16:00N 83°24' W 044°52'0 0.0 1005.7 -27.0
2011-Nov-19 15:30N 83°24' W 044°52'0 1.7 1005.9 -27.2
2011-Nov-19 15:20N 83°24' W 044°55'0 0.0 1006.4 -27.3
2011-Nov-19 15:10N 83°24' W 044°55'0 0.0 -27.3
2011-Nov-19 14:40N 83°24' W 044°55'0 0.5 1006.9 -27.5
2011-Nov-19 14:30N 83°24' W 044°54'0 0.1 1007.0 -27.5
2011-Nov-19 14:20N 83°24' W 044°54'0 1.2 1007.2 -27.6
2011-Nov-19 14:10N 83°24' W 044°55'0 1.2 1007.2 -27.7
2011-Nov-19 14:00N 83°24' W 044°56'1 4.3 1007.0 -27.7
2011-Nov-19 13:50N 83°25' W 044°52'1 5.4 1007.2 -27.7
2011-Nov-19 13:40N 83°24' W 044°55'0 0.8 1007.4 -27.8
2011-Nov-19 13:30N 83°24' W 044°54'0 0.8 1007.7 -27.8
2011-Nov-19 13:00N 83°24' W 044°52'0 2.5 1008.1 -27.9
2011-Nov-19 12:50N 83°24' W 044°54'0 0.0 1008.3 -28.0
2011-Nov-19 12:40N 83°24' W 044°54'0 0.4 1008.4 -28.0
2011-Nov-19 12:30N 83°24' W 044°54'0 0.0 1008.5 -28.1
2011-Nov-19 12:20N 83°24' W 044°54'0 0.8 1008.5 -28.1
2011-Nov-19 12:10N 83°24' W 044°55'0 0.7 1008.7 -28.2
2011-Nov-19 12:00N 83°24' W 044°55'0 0.0 1008.8 -28.3
2011-Nov-19 11:50N 83°24' W 044°55'0 0.2 1009.0 -28.3
2011-Nov-19 11:20N 83°24' W 044°55'0 0.5 1009.2 -28.4
2011-Nov-19 11:00N 83°24' W 044°54'0 0.1 1009.5 -28.5
2011-Nov-19 10:40N 83°24' W 044°54'0 0.3 1009.6 -28.6
2011-Nov-19 10:30N 83°24' W 044°54'0 2.4 1009.9 -28.6
2011-Nov-19 10:20N 83°24' W 044°57'0 2.3 1010.0 -28.6
2011-Nov-19 10:10N 83°24' W 044°54'0 0.3 1010.3 -28.6
2011-Nov-19 09:40N 83°24' W 044°56'0 0.0 1010.9 -28.7
2011-Nov-19 09:30N 83°24' W 044°56'0 1.3 1010.9 -28.7
2011-Nov-19 09:20N 83°24' W 044°54'0 0.6 1011.0 -28.7
2011-Nov-19 09:00N 83°24' W 044°55'0 1.4 1011.1 -28.7
2011-Nov-19 08:50N 83°24' W 044°53'0 1.0 1011.3 -28.8
2011-Nov-19 08:40N 83°24' W 044°55'1 3.3 1011.4 -28.8
2011-Nov-19 08:30N 83°24' W 044°50'0 0.0 1011.4 -28.8
2011-Nov-19 08:20N 83°24' W 044°50'0 1.4 1011.4 -28.8
2011-Nov-19 08:00N 83°24' W 044°54'0 0.6 1011.8 -28.7
2011-Nov-19 07:50N 83°24' W 044°54'0 1.0 1011.8 -28.7
2011-Nov-19 07:40N 83°24' W 044°53'1 1.9 1011.8 -28.6
2011-Nov-19 07:20N 83°24' W 044°58'1 3.4 1012.1 -28.5
2011-Nov-19 07:10N 83°24' W 044°54'0 0.0 1012.1 -28.5
2011-Nov-19 07:00N 83°24' W 044°54'0 0.0 1012.1 -28.5
2011-Nov-19 06:50N 83°24' W 044°54'0 1.7 1012.5 -28.4
2011-Nov-19 06:40N 83°24' W 044°56'0 0.4 1012.5 -28.4
2011-Nov-19 06:20N 83°24' W 044°55'0 0.0 1012.4 -28.4
2011-Nov-19 06:10N 83°24' W 044°55'0 1.8 1012.6 -28.3
2011-Nov-19 06:00N 83°24' W 044°53'0 0.0 1012.9 -28.3
2011-Nov-19 05:50N 83°24' W 044°53'1 3.4 1012.9 -28.3
2011-Nov-19 05:40N 83°24' W 044°58'0 0.0 1013.1 -28.3
2011-Nov-19 05:30N 83°24' W 044°58'0 1.5 1013.1 -28.3
2011-Nov-19 05:10N 83°24' W 044°54'0 0.5 1013.2 -28.3
2011-Nov-19 05:00N 83°24' W 044°54'0 0.0 1013.3 -28.3
2011-Nov-19 04:30N 83°24' W 044°54'0 1.4 1013.7 -28.0
2011-Nov-19 04:20N 83°24' W 044°54'0 0.0 1013.9 -27.9
2011-Nov-19 04:10N 83°24' W 044°54'0 0.4 1013.9
2011-Nov-19 03:50N 83°24' W 044°53'0 0.8 1014.0
2011-Nov-19 03:40N 83°24' W 044°54'0 0.1 1014.2 -27.5
2011-Nov-19 03:30N 83°24' W 044°54'0 0.9 1014.2 -27.3
2011-Nov-19 03:20N 83°24' W 044°55'0 0.5 1014.3 -27.2
2011-Nov-19 03:10N 83°24' W 044°55'0 0.0 1014.3 -27.2
2011-Nov-19 02:50N 83°24' W 044°55'0 0.5 1014.6 -26.7
2011-Nov-19 02:30N 83°24' W 044°54'0 0.7 1014.8 -26.5
2011-Nov-19 02:10N 83°24' W 044°54'0 0.5 1014.8 -26.3
2011-Nov-19 02:00N 83°24' W 044°55'0 0.5 1014.8 -26.2
2011-Nov-19 01:50N 83°24' W 044°54'0 0.5 1015.1 -26.1
2011-Nov-19 01:40N 83°24' W 044°55'1 3.9 1015.2 -25.8
2011-Nov-19 01:30N 83°24' W 044°52'1 1.6 1015.2 -25.8
2011-Nov-19 01:10N 83°24' W 044°54'0 0.0 1015.5 -24.8
2011-Nov-19 01:00N 83°24' W 044°54'0 0.9 1015.5 -24.8
2011-Nov-19 00:50N 83°24' W 044°55'0 0.4 1015.7 -24.1
2011-Nov-19 00:30N 83°24' W 044°54'0 0.0 1015.7 -23.3
2011-Nov-19 00:10N 83°24' W 044°54'0 2.2 1015.9 -22.5
2011-Nov-19 00:00N 83°24' W 044°54'0 1.9 1015.9 -22.0
2011-Nov-18 23:50N 83°24' W 044°54'0 0.0 1015.9 -21.6
2011-Nov-18 23:20N 83°24' W 044°54'0 0.1 1015.8 -20.8
2011-Nov-18 23:10N 83°24' W 044°54'0 2.0 1016.1 -20.4
2011-Nov-18 23:00N 83°24' W 044°56'0 0.0 1016.1 -20.4
2011-Nov-18 22:30N 83°24' W 044°56'0 1.7 1016.3 -20.2
2011-Nov-18 22:20N 83°24' W 044°55'0 1.4 1016.3 -19.9
2011-Nov-18 22:10N 83°24' W 044°56'0 1.1 1016.3 -19.9
2011-Nov-18 21:50N 83°24' W 044°53'0 2.3 1016.5 -19.8
2011-Nov-18 21:40N 83°24' W 044°56'0 0.0 1016.5 -19.8
2011-Nov-18 21:30N 83°24' W 044°56'0 2.2 1016.6 -19.8
2011-Nov-18 21:20N 83°25' W 044°56'0 0.0 1016.6 -19.9
2011-Nov-18 20:50N 83°25' W 044°56'0 2.4 1016.5 -19.8
2011-Nov-18 20:40N 83°24' W 044°54'1 4.4 1016.9 -19.7
2011-Nov-18 20:30N 83°24' W 045°00'1 1.4 1016.9 -19.7
2011-Nov-18 20:00N 83°24' W 044°54'0 0.0 -19.6
2011-Nov-18 19:40N 83°24' W 044°54'0 0.0 1017.0 -19.5
2011-Nov-18 19:30N 83°24' W 044°54'0 0.0 1017.2 -19.5
2011-Nov-18 19:20N 83°24' W 044°54'0 0.5 1017.0 -19.5
2011-Nov-18 19:10N 83°24' W 044°55'0 1.1 1017.0 -19.5
2011-Nov-18 19:00N 83°24' W 044°56'0 1.2 1017.2 -19.5
2011-Nov-18 18:50N 83°24' W 044°55'0 0.0 1017.2 -19.4
2011-Nov-18 18:20N 83°24' W 044°55'0 0.5 -19.4
2011-Nov-18 18:00N 83°24' W 044°53'0 1.7 1017.6 -19.3
2011-Nov-18 17:50N 83°24' W 044°55'0 1.7 1017.6 -19.3
2011-Nov-18 17:40N 83°24' W 044°53'0 0.0 1017.6 -19.3
2011-Nov-18 17:30N 83°24' W 044°53'0 1.5 1017.7 -19.2
2011-Nov-18 17:20N 83°24' W 044°55'0 1.2 1017.7 -19.5
2011-Nov-18 17:10N 83°24' W 044°53'0 0.0 1017.7 -19.2
2011-Nov-18 16:40N 83°24' W 044°53'0 0.7 1017.7 -19.1
2011-Nov-18 16:20N 83°24' W 044°51'0 0.0 1017.7 -19.0
2011-Nov-18 16:10N 83°24' W 044°51'0 2.4 1017.7 -19.0
2011-Nov-18 16:00N 83°24' W 044°53'0 0.0 1017.7 -18.9
2011-Nov-18 15:50N 83°24' W 044°53'0 0.8 1017.7 -18.9
2011-Nov-18 15:40N 83°24' W 044°54'0 0.3 1017.8 -18.9
2011-Nov-18 15:30N 83°24' W 044°54'0 0.2 1017.8 -18.9
2011-Nov-18 15:20N 83°24' W 044°54'0 0.0 1018.0
2011-Nov-18 15:00N 83°24' W 044°54'0 0.2 1018.0 -18.8
2011-Nov-18 14:40N 83°24' W 044°54'0 0.7 1018.1 -18.8
2011-Nov-18 14:30N 83°24' W 044°54'0 0.7 1018.1 -18.8
2011-Nov-18 14:20N 83°24' W 044°54'0 0.0 1018.3 -18.8
2011-Nov-18 14:10N 83°24' W 044°54'0 0.1 1018.3 -18.8
2011-Nov-18 13:50N 83°24' W 044°54'0 0.5 1018.4 -18.9
2011-Nov-18 13:40N 83°24' W 044°54'0 0.9 1018.4 -18.9
2011-Nov-18 13:30N 83°24' W 044°55'0 0.9 1018.4 -18.9
2011-Nov-18 13:20N 83°24' W 044°54'0 0.0 1018.4 -18.9
2011-Nov-18 13:00N 83°24' W 044°54'0 0.8 1018.5 -18.9
2011-Nov-18 12:50N 83°24' W 044°55'0 0.0 1018.5 -18.9
2011-Nov-18 12:40N 83°24' W 044°55'0 0.0 1018.5 -18.9
2011-Nov-18 12:30N 83°24' W 044°55'0 0.4 1018.5 -18.9
2011-Nov-18 12:10N 83°24' W 044°55'0 0.0 1018.7 -18.9
2011-Nov-18 12:00N 83°24' W 044°55'0 0.3 1018.7 -18.9
2011-Nov-18 11:40N 83°24' W 044°54'0 0.4 1018.8 -18.9
2011-Nov-18 11:20N 83°24' W 044°54'0 0.0 1018.8 -18.9
2011-Nov-18 11:10N 83°24' W 044°54'0 0.9 1018.9 -19.0
2011-Nov-18 11:00N 83°24' W 044°55'0 0.0 1018.8 -19.0
2011-Nov-18 10:50N 83°24' W 044°55'0 0.5 1018.8 -19.0
2011-Nov-18 10:30N 83°24' W 044°54'0 1.1 1018.8 -19.0
2011-Nov-18 10:20N 83°24' W 044°55'0 0.4 1018.8 -19.0
2011-Nov-18 10:00N 83°24' W 044°54'0 0.2 1018.9 -19.0
2011-Nov-18 09:40N 83°24' W 044°54'0 0.0 1019.1 -19.0
2011-Nov-18 09:30N 83°24' W 044°54'0 1.0 1019.1 -19.0
2011-Nov-18 09:20N 83°24' W 044°55'0 1.5 1018.9 -19.0
2011-Nov-18 09:10N 83°24' W 044°53'0 0.0 1018.9 -19.0
2011-Nov-18 08:50N 83°24' W 044°53'0 0.7 1018.9 -19.0
2011-Nov-18 08:40N 83°24' W 044°53'0 0.0 1018.9 -19.0
2011-Nov-18 08:30N 83°24' W 044°53'1 3.2 1018.9
2011-Nov-18 08:20N 83°24' W 044°57'0 0.0 1019.1 -19.0
2011-Nov-18 08:10N 83°24' W 044°57'0 1.0 1019.1 -19.0
2011-Nov-18 07:50N 83°24' W 044°54'0 0.2 1019.1 -19.0
2011-Nov-18 07:40N 83°24' W 044°54'0 0.0 1019.2 -18.9
2011-Nov-18 07:30N 83°24' W 044°54'0 0.0 1019.2 -18.9
2011-Nov-18 07:10N 83°24' W 044°54'0 1.2 1019.4 -18.9
2011-Nov-18 07:00N 83°24' W 044°55'0 0.8 1019.4 -18.9
2011-Nov-18 06:50N 83°24' W 044°54'0 0.0 -18.9
2011-Nov-18 06:40N 83°24' W 044°54'0 0.0 1019.2 -18.9
2011-Nov-18 06:30N 83°24' W 044°54'0 0.5
2011-Nov-18 06:10N 83°24' W 044°54'0 0.6 1019.5 -19.0
2011-Nov-18 06:00N 83°24' W 044°54'0 0.0 1019.5 -19.1
2011-Nov-18 05:50N 83°24' W 044°54'0 0.0 1019.5 -19.1
2011-Nov-18 05:20N 83°24' W 044°54'0 0.8 1019.6 -19.2
2011-Nov-18 05:10N 83°24' W 044°55'0 0.5 1019.8 -19.2
2011-Nov-18 05:00N 83°24' W 044°55'0 0.5 1019.8 -19.2
2011-Nov-18 04:50N 83°24' W 044°55'0 0.7 1020.0 -19.3
2011-Nov-18 04:30N 83°24' W 044°54'0 0.0 1020.0 -19.4
2011-Nov-18 04:20N 83°24' W 044°54'0 0.8 1020.0 -19.4
2011-Nov-18 04:10N 83°24' W 044°55'0 0.0 -19.4
2011-Nov-18 04:00N 83°24' W 044°55'0 0.4
2011-Nov-18 03:40N 83°24' W 044°55'0 0.4 1020.0 -19.5
2011-Nov-18 03:30N 83°24' W 044°55'0 0.7 1020.2 -19.5
2011-Nov-18 03:20N 83°24' W 044°54'0 0.7 -19.5
2011-Nov-18 03:10N 83°24' W 044°55'0 0.6 1020.5 -19.6
2011-Nov-18 02:40N 83°24' W 044°56'0 0.0 1020.6 -19.6
2011-Nov-18 02:30N 83°24' W 044°56'0 0.0 1020.6 -19.6
2011-Nov-18 02:20N 83°24' W 044°56'0 0.0 1020.7 -19.7
2011-Nov-18 02:00N 83°24' W 044°56'0 1.8 1020.9 -19.8
2011-Nov-18 01:50N 83°24' W 044°55'0 0.9 1020.9 -19.9
2011-Nov-18 01:40N 83°24' W 044°54'0 0.9 1020.9
2011-Nov-18 01:30N 83°24' W 044°55'0 0.0 1020.9 -20.0
2011-Nov-18 01:20N 83°24' W 044°55'0 0.5 1020.9 -20.0
2011-Nov-18 01:00N 83°24' W 044°55'0 0.0 1021.0 -20.2
2011-Nov-18 00:50N 83°24' W 044°55'0 0.0 1021.0 -20.2
2011-Nov-18 00:20N 83°24' W 044°55'0 0.8 1021.0 -20.4
2011-Nov-18 00:10N 83°24' W 044°54'0 1.0 1021.1 -20.5
2011-Nov-18 00:00N 83°24' W 044°54'0 1.9 1021.1 -20.5
2011-Nov-17 23:50N 83°24' W 044°55'0 0.0 1021.1 -20.6
2011-Nov-17 23:40N 83°24' W 044°55'0 0.5 1021.1
2011-Nov-17 23:20N 83°24' W 044°54'0 0.0 1021.3 -20.9
2011-Nov-17 23:10N 83°24' W 044°54'0 2.0 -20.9
2011-Nov-17 23:00N 83°24' W 044°53'0 0.6 1021.1 -21.0
2011-Nov-17 22:30N 83°24' W 044°53'0 2.2 1020.9 -21.0
2011-Nov-17 22:20N 83°24' W 044°56'0 1.3 1020.9 -21.0
2011-Nov-17 22:10N 83°24' W 044°55'0 1.3 1020.9 -21.1
2011-Nov-17 22:00N 83°24' W 044°56'0 0.2 1020.9 -21.1
2011-Nov-17 21:40N 83°24' W 044°56'0 0.5 1021.0 -21.2
2011-Nov-17 21:10N 83°24' W 044°54'0 0.7 1021.1 -21.2
2011-Nov-17 20:50N 83°24' W 044°52'0 0.0 1021.3 -21.1
2011-Nov-17 20:40N 83°24' W 044°52'0 1.3 1021.3 -21.1
2011-Nov-17 20:20N 83°24' W 044°55'0 1.1 1021.3 -20.9
2011-Nov-17 20:00N 83°24' W 044°56'0 1.3 1021.4 -20.5
2011-Nov-17 19:50N 83°24' W 044°54'0 0.0 1021.3 -20.5
2011-Nov-17 19:40N 83°24' W 044°54'0 0.0 1021.1 -20.4
2011-Nov-17 19:30N 83°24' W 044°54'0 0.5 1021.1 -20.4
2011-Nov-17 19:10N 83°24' W 044°54'0 0.4 1021.1 -20.3
2011-Nov-17 19:00N 83°24' W 044°54'0 0.0 1021.1
2011-Nov-17 18:50N 83°24' W 044°54'0 0.0 1021.1 -20.3
2011-Nov-17 18:40N 83°24' W 044°54'0 0.1 1021.1 -20.3
2011-Nov-17 18:20N 83°24' W 044°55'1 4.6 1021.1 -20.3
2011-Nov-17 18:10N 83°24' W 044°52'1 4.7 1021.1 -20.3
2011-Nov-17 18:00N 83°24' W 044°56'0 0.0 1021.1 -20.3
2011-Nov-17 17:50N 83°24' W 044°56'0 0.8 1021.1 -20.3
2011-Nov-17 17:30N 83°24' W 044°54'1 3.8 1021.3 -20.4
2011-Nov-17 17:20N 83°24' W 044°49'1 0.9 1021.3 -20.4
2011-Nov-17 16:30N 83°24' W 044°54'0 0.0 1021.4 -20.5
2011-Nov-17 16:20N 83°24' W 044°54'0 0.0 1021.4 -20.6
2011-Nov-17 16:10N 83°24' W 044°54'0 0.0 1021.4 -20.6
2011-Nov-17 15:50N 83°24' W 044°54'0 0.4 1021.3 -20.7
2011-Nov-17 15:40N 83°24' W 044°54'0 0.0 1021.3 -20.7
2011-Nov-17 15:30N 83°24' W 044°54'0 0.0 1021.3 -20.7
2011-Nov-17 15:20N 83°24' W 044°54'0 0.7 1021.3
2011-Nov-17 14:50N 83°24' W 044°51'0 2.0 1021.4 -21.1
2011-Nov-17 14:40N 83°24' W 044°54'0 0.0 1021.4 -21.1
2011-Nov-17 14:30N 83°24' W 044°54'0 0.9 1021.4 -21.1
2011-Nov-17 14:10N 83°24' W 044°51'0 2.8 1021.4 -21.1
2011-Nov-17 14:00N 83°24' W 044°55'0 0.0 1021.4 -21.1
2011-Nov-17 13:50N 83°24' W 044°55'0 0.0 1021.4
2011-Nov-17 13:40N 83°24' W 044°55'0 0.0 1021.3 -21.1
2011-Nov-17 13:20N 83°24' W 044°55'0 1.3 1021.3 -21.1
2011-Nov-17 13:10N 83°24' W 044°54'0 0.0 1021.4 -21.1
2011-Nov-17 13:00N 83°24' W 044°54'0 0.0 1021.3 -21.1
2011-Nov-17 12:50N 83°24' W 044°54'0 0.0 1021.3 -21.1
2011-Nov-17 12:20N 83°24' W 044°54'0 0.0 1021.1 -21.2
2011-Nov-17 12:10N 83°24' W 044°54'0 0.3 1021.1 -21.2
2011-Nov-17 12:00N 83°24' W 044°54'0 0.5 1021.1 -21.2
2011-Nov-17 11:30N 83°24' W 044°54'0 2.2 1020.9 -21.3
2011-Nov-17 11:20N 83°24' W 044°54'0 0.0 1020.9 -21.3
2011-Nov-17 11:10N 83°24' W 044°54'0 0.3 1020.9 -21.3
2011-Nov-17 10:40N 83°24' W 044°55'0 0.0 -21.2
2011-Nov-17 10:30N 83°24' W 044°55'0 2.2 1020.9 -21.2
2011-Nov-17 10:20N 83°24' W 044°52'0 0.4 1020.7 -21.2
2011-Nov-17 09:50N 83°24' W 044°53'0 0.8 1020.7 -21.2
2011-Nov-17 09:40N 83°24' W 044°55'0 0.4 1020.6 -21.2
2011-Nov-17 09:30N 83°24' W 044°55'0 0.1 1020.6 -21.2
2011-Nov-17 09:00N 83°24' W 044°55'0 1.0 1020.3 -21.2
2011-Nov-17 08:50N 83°24' W 044°56'0 2.2 1020.3 -21.3
2011-Nov-17 08:40N 83°24' W 044°53'0 0.2 1020.2 -21.3
2011-Nov-17 08:00N 83°24' W 044°53'0 0.0 1019.9 -21.3
2011-Nov-17 07:20N 83°24' W 044°53'0 1.1 1019.6 -21.6
2011-Nov-17 07:10N 83°24' W 044°52'0 1.7 1019.6 -21.7
2011-Nov-17 07:00N 83°24' W 044°54'0 0.6 1019.6 -21.7
2011-Nov-17 06:50N 83°24' W 044°55'0 0.2 1019.5 -21.8
2011-Nov-17 06:20N 83°24' W 044°55'0 1.0 1019.4 -22.3
2011-Nov-17 06:10N 83°24' W 044°54'0 0.4 1019.4 -22.3
2011-Nov-17 05:40N 83°24' W 044°53'0 1.8 1018.9 -23.3
2011-Nov-17 05:30N 83°24' W 044°55'0 1.8 1018.9 -23.3
2011-Nov-17 05:20N 83°24' W 044°53'0 0.6 1018.8 -24.0
2011-Nov-17 05:10N 83°24' W 044°53'0 0.5 1018.8 -24.4
2011-Nov-17 04:40N 83°24' W 044°54'0 1.1 1018.8 -25.3
2011-Nov-17 04:30N 83°24' W 044°53'0 0.6 1018.8 -25.4
2011-Nov-17 03:50N 83°24' W 044°56'0 1.2 1018.5 -24.9
2011-Nov-17 03:40N 83°24' W 044°55'0 0.4 1018.4 -24.8
2011-Nov-17 03:30N 83°24' W 044°54'0 0.1 1018.4 -24.7
2011-Nov-17 03:00N 83°24' W 044°55'0 0.4 1018.1 -24.3
2011-Nov-17 02:50N 83°24' W 044°55'0 0.0 1018.0 -24.2
2011-Nov-17 02:10N 83°24' W 044°55'0 1.7 1017.8 -23.6
2011-Nov-17 02:00N 83°24' W 044°53'0 1.2 1017.8 -23.4
2011-Nov-17 01:50N 83°24' W 044°55'0 0.5 1017.7 -23.2
2011-Nov-17 01:20N 83°24' W 044°53'0 0.0 1017.6 -22.4
2011-Nov-17 01:10N 83°24' W 044°53'0 0.3 1017.4 -22.0
2011-Nov-17 00:30N 83°24' W 044°51'0 0.8 1017.4 -20.9
2011-Nov-17 00:20N 83°24' W 044°51'0 0.0 1017.3 -20.8
2011-Nov-17 00:10N 83°24' W 044°51'0 0.9 1017.2 -20.7
2011-Nov-16 23:40N 83°24' W 044°55'0 2.6 1017.0 -20.7
2011-Nov-16 23:30N 83°25' W 044°53'0 2.5 1016.9 -20.7
2011-Nov-16 23:20N 83°24' W 044°53'0 0.0 1016.9 -20.7
2011-Nov-16 22:50N 83°24' W 044°53'0 2.1 1016.6 -20.4
2011-Nov-16 22:40N 83°24' W 044°55'0 0.7 1016.5 -20.4
2011-Nov-16 22:30N 83°24' W 044°55'0 0.0 1016.3 -20.3
2011-Nov-16 22:20N 83°24' W 044°55'1 1.6 1016.3 -20.3
2011-Nov-16 22:00N 83°24' W 044°50'1 4.4 1016.2 -20.3
2011-Nov-16 21:50N 83°24' W 044°56'0 1.3 1016.2 -20.3
2011-Nov-16 21:40N 83°24' W 044°54'0 0.3 -20.3
2011-Nov-16 21:00N 83°24' W 044°54'0 2.7 1015.9 -20.2
2011-Nov-16 20:50N 83°24' W 044°53'0 2.7 1015.8 -20.1
2011-Nov-16 20:40N 83°24' W 044°54'0 0.6 1015.8 -20.1
2011-Nov-16 20:20N 83°24' W 044°56'0 0.0 1015.7
2011-Nov-16 20:10N 83°24' W 044°56'0 0.7 1015.5 -19.8
2011-Nov-16 20:00N 83°24' W 044°55'0 0.3 1015.5 -19.8
2011-Nov-16 19:20N 83°24' W 044°53'0 0.0 1015.2 -19.5
2011-Nov-16 19:10N 83°24' W 044°53'0 1.6 1015.2 -19.5
2011-Nov-16 19:00N 83°24' W 044°55'0 0.0 -19.4
2011-Nov-16 18:40N 83°24' W 044°55'0 0.4 1015.0 -19.3
2011-Nov-16 18:20N 83°24' W 044°54'0 0.7 1014.8 -19.3
2011-Nov-16 17:40N 83°24' W 044°58'0 2.8 1014.6 -19.2
2011-Nov-16 17:30N 83°25' W 044°54'0 0.0 1014.4 -19.2
2011-Nov-16 17:20N 83°25' W 044°54'0 0.0 1014.4 -19.2
2011-Nov-16 17:00N 83°25' W 044°54'0 2.6 1014.6 -19.2
2011-Nov-16 16:50N 83°24' W 044°53'0 0.5 1014.6 -19.2
2011-Nov-16 16:40N 83°24' W 044°54'0 0.0 1014.4 -19.2
2011-Nov-16 16:30N 83°24' W 044°54'0 0.3 1014.4 -19.2
2011-Nov-16 16:00N 83°24' W 044°53'0 1.1 1014.3 -19.2
2011-Nov-16 15:50N 83°24' W 044°54'0 1.5 1014.3 -18.9
2011-Nov-16 15:40N 83°24' W 044°55'0 0.0 1014.3
2011-Nov-16 15:20N 83°24' W 044°55'0 0.0 1014.3 -19.2
2011-Nov-16 15:10N 83°24' W 044°55'0 1.2 1014.3 -19.2
2011-Nov-16 15:00N 83°24' W 044°53'0 0.7 1014.2 -19.2
2011-Nov-16 14:50N 83°24' W 044°54'0 0.4 1014.2 -19.2
2011-Nov-16 14:20N 83°24' W 044°53'0 1.5 1014.0 -19.2
2011-Nov-16 14:10N 83°24' W 044°54'0 0.0 1013.9 -19.2
2011-Nov-16 14:00N 83°24' W 044°54'0 0.3 1013.9 -19.2
2011-Nov-16 13:40N 83°24' W 044°53'0 0.0 1013.9 -19.2
2011-Nov-16 13:30N 83°24' W 044°53'0 1.2 1013.9 -19.2
2011-Nov-16 13:20N 83°24' W 044°55'0 0.6 1013.7 -19.2
2011-Nov-16 13:10N 83°24' W 044°54'0 0.0 1013.7 -19.1
2011-Nov-16 12:40N 83°24' W 044°54'0 1.5 1013.6
2011-Nov-16 12:30N 83°24' W 044°56'0 1.9 1013.6 -19.0
2011-Nov-16 12:20N 83°24' W 044°54'0 0.6 1013.6 -19.0
2011-Nov-16 12:00N 83°24' W 044°56'0 0.0 1013.5 -18.9
2011-Nov-16 11:50N 83°24' W 044°56'0 1.0 1013.5 -18.9
2011-Nov-16 11:40N 83°24' W 044°54'0 0.4 1013.6 -18.9
2011-Nov-16 11:30N 83°24' W 044°54'0 0.2 -18.9
2011-Nov-16 10:50N 83°24' W 044°54'0 0.4 1013.5 -18.8
2011-Nov-16 10:40N 83°24' W 044°54'0 0.0 1013.5 -18.8
2011-Nov-16 10:10N 83°24' W 044°54'0 1.2 1013.2 -18.8
2011-Nov-16 10:00N 83°24' W 044°55'0 0.9 1013.1 -18.8
2011-Nov-16 09:50N 83°24' W 044°54'0 0.0 1013.1 -18.8
2011-Nov-16 09:10N 83°24' W 044°54'0 0.4 1012.9 -18.8
2011-Nov-16 09:00N 83°24' W 044°54'0 0.2 1012.9 -18.8
2011-Nov-16 08:20N 83°24' W 044°53'0 0.0 1012.6 -18.8
2011-Nov-16 08:10N 83°24' W 044°53'0 0.3 1012.6 -18.7
2011-Nov-16 07:30N 83°24' W 044°54'0 0.4 1012.2 -18.6
2011-Nov-16 07:20N 83°24' W 044°54'0 0.0 1012.1 -18.5
2011-Nov-16 06:50N 83°24' W 044°54'0 0.0 1011.8 -18.4
2011-Nov-16 06:40N 83°24' W 044°54'0 0.1 -18.4
2011-Nov-16 06:30N 83°24' W 044°54'0 0.1 1011.7 -18.4
2011-Nov-16 06:20N 83°24' W 044°54'0 0.4 1011.7 -18.4
2011-Nov-16 05:50N 83°24' W 044°56'0 2.7 1011.4 -18.2
2011-Nov-16 05:40N 83°25' W 044°53'1 3.3 1011.4 -18.2
2011-Nov-16 05:30N 83°24' W 044°52'0 0.0 1011.4 -18.2
2011-Nov-16 05:10N 83°24' W 044°52'0 0.0 1011.3 -18.1
2011-Nov-16 05:00N 83°24' W 044°52'0 2.4 1011.3 -18.1
2011-Nov-16 04:50N 83°25' W 044°53'0 0.3 1011.3 -18.1
2011-Nov-16 04:00N 83°24' W 044°53'   1011.1

Dump ship's entire track history

sailing weather and tide predictions

Buoy 48534